sensor_id;sensor_type;location;lat;lon;timestamp;pressure;altitude;pressure_sealevel;temperature;humidity
5298;BME280;14738;42.668;23.250;2022-10-16T00:02:19;48471.69;;;-141.90;100.00
5298;BME280;14738;42.668;23.250;2022-10-16T00:04:44;48457.81;;;-141.90;100.00
5298;BME280;14738;42.668;23.250;2022-10-16T00:07:10;48467.72;;;-141.90;100.00
5298;BME280;14738;42.668;23.250;2022-10-16T00:09:36;48485.59;;;-141.90;100.00
5298;BME280;14738;42.668;23.250;2022-10-16T00:12:01;48449.84;;;-141.90;100.00
5298;BME280;14738;42.668;23.250;2022-10-16T00:14:28;48477.66;;;-141.90;100.00
5298;BME280;14738;42.668;23.250;2022-10-16T00:16:54;48443.91;;;-141.90;100.00
5298;BME280;14738;42.668;23.250;2022-10-16T00:19:20;48477.66;;;-141.90;100.00
5298;BME280;14738;42.668;23.250;2022-10-16T00:21:45;48459.78;;;-141.90;100.00
5298;BME280;14738;42.668;23.250;2022-10-16T00:24:11;48437.94;;;-141.90;100.00
5298;BME280;14738;42.668;23.250;2022-10-16T00:26:37;48459.78;;;-141.90;100.00
5298;BME280;14738;42.668;23.250;2022-10-16T00:29:03;48495.53;;;-141.90;100.00
5298;BME280;14738;42.668;23.250;2022-10-16T00:31:29;48469.72;;;-141.90;100.00
5298;BME280;14738;42.668;23.250;2022-10-16T00:33:55;48453.81;;;-141.90;100.00
5298;BME280;14738;42.668;23.250;2022-10-16T00:36:22;48441.91;;;-141.90;100.00
5298;BME280;14738;42.668;23.250;2022-10-16T00:38:53;48475.66;;;-141.90;100.00
5298;BME280;14738;42.668;23.250;2022-10-16T00:41:20;48459.78;;;-141.90;100.00
5298;BME280;14738;42.668;23.250;2022-10-16T00:43:54;48475.66;;;-141.90;100.00
5298;BME280;14738;42.668;23.250;2022-10-16T00:46:39;48461.78;;;-141.90;100.00
5298;BME280;14738;42.668;23.250;2022-10-16T00:49:23;48465.75;;;-141.90;100.00
5298;BME280;14738;42.668;23.250;2022-10-16T00:51:51;48473.69;;;-141.90;100.00
5298;BME280;14738;42.668;23.250;2022-10-16T00:54:21;48451.84;;;-141.90;100.00
5298;BME280;14738;42.668;23.250;2022-10-16T00:56:47;48509.41;;;-141.90;100.00
5298;BME280;14738;42.668;23.250;2022-10-16T00:59:20;48455.81;;;-141.90;100.00
5298;BME280;14738;42.668;23.250;2022-10-16T01:01:47;48481.63;;;-141.90;100.00
5298;BME280;14738;42.668;23.250;2022-10-16T01:04:13;48465.75;;;-141.90;100.00
5298;BME280;14738;42.668;23.250;2022-10-16T01:06:48;48449.84;;;-141.90;100.00
5298;BME280;14738;42.668;23.250;2022-10-16T01:09:29;48459.78;;;-141.90;100.00
5298;BME280;14738;42.668;23.250;2022-10-16T01:12:08;48465.75;;;-141.90;100.00
5298;BME280;14738;42.668;23.250;2022-10-16T01:14:48;48477.66;;;-141.90;100.00
5298;BME280;14738;42.668;23.250;2022-10-16T01:17:26;48477.66;;;-141.90;100.00
5298;BME280;14738;42.668;23.250;2022-10-16T01:28:22;48455.81;;;-141.90;100.00
5298;BME280;14738;42.668;23.250;2022-10-16T01:30:50;48473.69;;;-141.90;100.00
5298;BME280;14738;42.668;23.250;2022-10-16T01:33:25;48469.72;;;-141.90;100.00
5298;BME280;14738;42.668;23.250;2022-10-16T01:35:57;48493.53;;;-141.90;100.00
5298;BME280;14738;42.668;23.250;2022-10-16T01:38:31;48467.72;;;-141.90;100.00
5298;BME280;14738;42.668;23.250;2022-10-16T01:41:06;48445.88;;;-141.90;100.00
5298;BME280;14738;42.668;23.250;2022-10-16T01:43:38;48481.63;;;-141.90;100.00
5298;BME280;14738;42.668;23.250;2022-10-16T01:46:05;48453.81;;;-141.90;100.00
5298;BME280;14738;42.668;23.250;2022-10-16T01:48:32;48475.66;;;-141.90;100.00
5298;BME280;14738;42.668;23.250;2022-10-16T01:51:08;48435.97;;;-141.90;100.00
5298;BME280;14738;42.668;23.250;2022-10-16T01:53:36;48513.38;;;-141.90;100.00
5298;BME280;14738;42.668;23.250;2022-10-16T01:56:04;48487.56;;;-141.90;100.00
5298;BME280;14738;42.668;23.250;2022-10-16T01:58:35;48485.59;;;-141.90;100.00
5298;BME280;14738;42.668;23.250;2022-10-16T02:01:03;48493.53;;;-141.90;100.00
5298;BME280;14738;42.668;23.250;2022-10-16T02:03:29;48475.66;;;-141.90;100.00
5298;BME280;14738;42.668;23.250;2022-10-16T02:05:58;48493.53;;;-141.90;100.00
5298;BME280;14738;42.668;23.250;2022-10-16T02:08:26;48457.81;;;-141.90;100.00
5298;BME280;14738;42.668;23.250;2022-10-16T02:10:56;48493.53;;;-141.90;100.00
5298;BME280;14738;42.668;23.250;2022-10-16T02:13:44;48451.84;;;-141.90;100.00
5298;BME280;14738;42.668;23.250;2022-10-16T02:16:12;48483.59;;;-141.90;100.00
5298;BME280;14738;42.668;23.250;2022-10-16T02:18:38;48495.53;;;-141.90;100.00
5298;BME280;14738;42.668;23.250;2022-10-16T02:21:22;48493.53;;;-141.90;100.00
5298;BME280;14738;42.668;23.250;2022-10-16T02:24:08;48499.50;;;-141.90;100.00
5298;BME280;14738;42.668;23.250;2022-10-16T02:29:14;48481.63;;;-141.90;100.00
5298;BME280;14738;42.668;23.250;2022-10-16T02:31:44;48477.66;;;-141.90;100.00
5298;BME280;14738;42.668;23.250;2022-10-16T02:34:13;48477.66;;;-141.90;100.00
5298;BME280;14738;42.668;23.250;2022-10-16T02:36:40;48493.53;;;-141.90;100.00
5298;BME280;14738;42.668;23.250;2022-10-16T02:39:08;48489.56;;;-141.90;100.00
5298;BME280;14738;42.668;23.250;2022-10-16T02:41:33;48473.69;;;-141.90;100.00
5298;BME280;14738;42.668;23.250;2022-10-16T02:43:59;48475.66;;;-141.90;100.00
5298;BME280;14738;42.668;23.250;2022-10-16T02:46:24;48461.78;;;-141.90;100.00
5298;BME280;14738;42.668;23.250;2022-10-16T02:48:50;48473.69;;;-141.90;100.00
5298;BME280;14738;42.668;23.250;2022-10-16T02:51:15;48461.78;;;-141.90;100.00
5298;BME280;14738;42.668;23.250;2022-10-16T02:53:41;48469.72;;;-141.90;100.00
5298;BME280;14738;42.668;23.250;2022-10-16T02:56:06;48469.72;;;-141.90;100.00
5298;BME280;14738;42.668;23.250;2022-10-16T02:58:32;48481.63;;;-141.90;100.00
5298;BME280;14738;42.668;23.250;2022-10-16T03:00:57;48479.63;;;-141.90;100.00
5298;BME280;14738;42.668;23.250;2022-10-16T03:03:22;48495.53;;;-141.90;100.00
5298;BME280;14738;42.668;23.250;2022-10-16T03:05:48;48489.56;;;-141.90;100.00
5298;BME280;14738;42.668;23.250;2022-10-16T03:08:13;48485.59;;;-141.90;100.00
5298;BME280;14738;42.668;23.250;2022-10-16T03:10:39;48451.84;;;-141.90;100.00
5298;BME280;14738;42.668;23.250;2022-10-16T03:13:04;48477.66;;;-141.90;100.00
5298;BME280;14738;42.668;23.250;2022-10-16T03:15:30;48499.50;;;-141.90;100.00
5298;BME280;14738;42.668;23.250;2022-10-16T03:17:58;48489.56;;;-141.90;100.00
5298;BME280;14738;42.668;23.250;2022-10-16T03:20:24;48485.59;;;-141.90;100.00
5298;BME280;14738;42.668;23.250;2022-10-16T03:22:50;48473.69;;;-141.90;100.00
5298;BME280;14738;42.668;23.250;2022-10-16T03:25:15;48477.66;;;-141.90;100.00
5298;BME280;14738;42.668;23.250;2022-10-16T03:27:41;48465.75;;;-141.90;100.00
5298;BME280;14738;42.668;23.250;2022-10-16T03:30:07;48469.72;;;-141.90;100.00
5298;BME280;14738;42.668;23.250;2022-10-16T03:32:34;48501.47;;;-141.90;100.00
5298;BME280;14738;42.668;23.250;2022-10-16T03:35:00;48473.69;;;-141.90;100.00
5298;BME280;14738;42.668;23.250;2022-10-16T03:37:25;48457.81;;;-141.90;100.00
5298;BME280;14738;42.668;23.250;2022-10-16T03:39:51;48517.34;;;-141.90;100.00
5298;BME280;14738;42.668;23.250;2022-10-16T03:42:16;48499.50;;;-141.90;100.00
5298;BME280;14738;42.668;23.250;2022-10-16T03:44:42;48503.47;;;-141.90;100.00
5298;BME280;14738;42.668;23.250;2022-10-16T03:47:07;48509.41;;;-141.90;100.00
5298;BME280;14738;42.668;23.250;2022-10-16T03:49:32;48505.44;;;-141.90;100.00
5298;BME280;14738;42.668;23.250;2022-10-16T03:51:58;48497.50;;;-141.90;100.00
5298;BME280;14738;42.668;23.250;2022-10-16T03:54:23;48493.53;;;-141.90;100.00
5298;BME280;14738;42.668;23.250;2022-10-16T03:56:49;48489.56;;;-141.90;100.00
5298;BME280;14738;42.668;23.250;2022-10-16T03:59:14;48485.59;;;-141.90;100.00
5298;BME280;14738;42.668;23.250;2022-10-16T04:01:39;48469.72;;;-141.90;100.00
5298;BME280;14738;42.668;23.250;2022-10-16T04:04:05;48511.41;;;-141.90;100.00
5298;BME280;14738;42.668;23.250;2022-10-16T04:06:30;48485.59;;;-141.90;100.00
5298;BME280;14738;42.668;23.250;2022-10-16T04:08:56;48513.38;;;-141.90;100.00
5298;BME280;14738;42.668;23.250;2022-10-16T04:11:21;48489.56;;;-141.90;100.00
5298;BME280;14738;42.668;23.250;2022-10-16T04:13:47;48513.38;;;-141.90;100.00
5298;BME280;14738;42.668;23.250;2022-10-16T04:16:12;48503.47;;;-141.90;100.00
5298;BME280;14738;42.668;23.250;2022-10-16T04:18:38;48475.66;;;-141.90;100.00
5298;BME280;14738;42.668;23.250;2022-10-16T04:21:05;48513.38;;;-141.90;100.00
5298;BME280;14738;42.668;23.250;2022-10-16T04:23:31;48485.59;;;-141.90;100.00
5298;BME280;14738;42.668;23.250;2022-10-16T04:25:57;48493.53;;;-141.90;100.00
5298;BME280;14738;42.668;23.250;2022-10-16T04:28:22;48485.59;;;-141.90;100.00
5298;BME280;14738;42.668;23.250;2022-10-16T04:30:48;48473.69;;;-141.90;100.00
5298;BME280;14738;42.668;23.250;2022-10-16T04:33:15;48515.38;;;-141.90;100.00
5298;BME280;14738;42.668;23.250;2022-10-16T04:35:40;48473.69;;;-141.90;100.00
5298;BME280;14738;42.668;23.250;2022-10-16T04:38:05;48545.16;;;-141.90;100.00
5298;BME280;14738;42.668;23.250;2022-10-16T04:40:31;48493.53;;;-141.90;100.00
5298;BME280;14738;42.668;23.250;2022-10-16T04:42:58;48487.56;;;-141.90;100.00
5298;BME280;14738;42.668;23.250;2022-10-16T04:45:24;48509.41;;;-141.90;100.00
5298;BME280;14738;42.668;23.250;2022-10-16T04:47:49;48517.34;;;-141.90;100.00
5298;BME280;14738;42.668;23.250;2022-10-16T04:50:15;48509.41;;;-141.90;100.00
5298;BME280;14738;42.668;23.250;2022-10-16T04:52:41;48501.47;;;-141.90;100.00
5298;BME280;14738;42.668;23.250;2022-10-16T04:55:07;48515.38;;;-141.90;100.00
5298;BME280;14738;42.668;23.250;2022-10-16T04:57:33;48499.50;;;-141.90;100.00
5298;BME280;14738;42.668;23.250;2022-10-16T04:59:58;48477.66;;;-141.90;100.00
5298;BME280;14738;42.668;23.250;2022-10-16T05:02:24;48501.47;;;-141.90;100.00
5298;BME280;14738;42.668;23.250;2022-10-16T05:04:50;48487.56;;;-141.90;100.00
5298;BME280;14738;42.668;23.250;2022-10-16T05:07:16;48481.63;;;-141.90;100.00
5298;BME280;14738;42.668;23.250;2022-10-16T05:09:41;48509.41;;;-141.90;100.00
5298;BME280;14738;42.668;23.250;2022-10-16T05:12:06;48489.56;;;-141.90;100.00
5298;BME280;14738;42.668;23.250;2022-10-16T05:14:32;48459.78;;;-141.90;100.00
5298;BME280;14738;42.668;23.250;2022-10-16T05:16:59;48471.69;;;-141.90;100.00
5298;BME280;14738;42.668;23.250;2022-10-16T05:19:25;48491.56;;;-141.90;100.00
5298;BME280;14738;42.668;23.250;2022-10-16T05:21:50;48461.78;;;-141.90;100.00
5298;BME280;14738;42.668;23.250;2022-10-16T05:24:16;48445.88;;;-141.90;100.00
5298;BME280;14738;42.668;23.250;2022-10-16T05:26:41;48432.00;;;-141.90;100.00
5298;BME280;14738;42.668;23.250;2022-10-16T05:29:06;48447.88;;;-141.90;100.00
5298;BME280;14738;42.668;23.250;2022-10-16T05:31:32;48453.81;;;-141.90;100.00
5298;BME280;14738;42.668;23.250;2022-10-16T05:34:01;48433.97;;;-141.90;100.00
5298;BME280;14738;42.668;23.250;2022-10-16T05:36:27;48426.03;;;-141.90;100.00
5298;BME280;14738;42.668;23.250;2022-10-16T05:38:52;48461.78;;;-141.90;100.00
5298;BME280;14738;42.668;23.250;2022-10-16T05:41:18;48433.97;;;-141.90;100.00
5298;BME280;14738;42.668;23.250;2022-10-16T05:43:47;48443.91;;;-141.90;100.00
5298;BME280;14738;42.668;23.250;2022-10-16T05:46:12;48441.91;;;-141.90;100.00
5298;BME280;14738;42.668;23.250;2022-10-16T05:48:38;48437.94;;;-141.90;100.00
5298;BME280;14738;42.668;23.250;2022-10-16T05:51:05;48485.59;;;-141.90;100.00
5298;BME280;14738;42.668;23.250;2022-10-16T05:53:33;48451.84;;;-141.90;100.00
5298;BME280;14738;42.668;23.250;2022-10-16T05:55:59;48437.94;;;-141.90;100.00
5298;BME280;14738;42.668;23.250;2022-10-16T05:58:27;48455.81;;;-141.90;100.00
5298;BME280;14738;42.668;23.250;2022-10-16T06:00:58;48422.06;;;-141.90;100.00
5298;BME280;14738;42.668;23.250;2022-10-16T06:03:24;48469.72;;;-141.90;100.00
5298;BME280;14738;42.668;23.250;2022-10-16T06:05:50;48449.84;;;-141.90;100.00
5298;BME280;14738;42.668;23.250;2022-10-16T06:08:16;48453.81;;;-141.90;100.00
5298;BME280;14738;42.668;23.250;2022-10-16T06:10:42;48445.88;;;-141.90;100.00
5298;BME280;14738;42.668;23.250;2022-10-16T06:13:09;48451.84;;;-141.90;100.00
5298;BME280;14738;42.668;23.250;2022-10-16T06:15:34;48461.78;;;-141.90;100.00
5298;BME280;14738;42.668;23.250;2022-10-16T06:17:59;48467.72;;;-141.90;100.00
5298;BME280;14738;42.668;23.250;2022-10-16T06:20:26;48437.94;;;-141.90;100.00
5298;BME280;14738;42.668;23.250;2022-10-16T06:22:51;48457.81;;;-141.90;100.00
5298;BME280;14738;42.668;23.250;2022-10-16T06:25:17;48455.81;;;-141.90;100.00
5298;BME280;14738;42.668;23.250;2022-10-16T06:27:42;48422.06;;;-141.90;100.00
5298;BME280;14738;42.668;23.250;2022-10-16T06:30:08;48465.75;;;-141.90;100.00
5298;BME280;14738;42.668;23.250;2022-10-16T06:32:33;48459.78;;;-141.90;100.00
5298;BME280;14738;42.668;23.250;2022-10-16T06:34:59;48455.81;;;-141.90;100.00
5298;BME280;14738;42.668;23.250;2022-10-16T06:37:24;48432.00;;;-141.90;100.00
5298;BME280;14738;42.668;23.250;2022-10-16T06:39:50;48437.94;;;-141.90;100.00
5298;BME280;14738;42.668;23.250;2022-10-16T06:42:17;48449.84;;;-141.90;100.00
5298;BME280;14738;42.668;23.250;2022-10-16T06:44:43;48475.66;;;-141.90;100.00
5298;BME280;14738;42.668;23.250;2022-10-16T06:47:09;48392.28;;;-141.90;100.00
5298;BME280;14738;42.668;23.250;2022-10-16T06:49:34;48439.94;;;-141.90;100.00
5298;BME280;14738;42.668;23.250;2022-10-16T06:52:00;48435.97;;;-141.90;100.00
5298;BME280;14738;42.668;23.250;2022-10-16T06:54:26;48408.16;;;-141.90;100.00
5298;BME280;14738;42.668;23.250;2022-10-16T06:56:52;48430.00;;;-141.90;100.00
5298;BME280;14738;42.668;23.250;2022-10-16T06:59:20;48426.03;;;-141.90;100.00
5298;BME280;14738;42.668;23.250;2022-10-16T07:01:45;48430.00;;;-141.90;100.00
5298;BME280;14738;42.668;23.250;2022-10-16T07:04:11;48457.81;;;-141.90;100.00
5298;BME280;14738;42.668;23.250;2022-10-16T07:06:36;48420.09;;;-141.90;100.00
5298;BME280;14738;42.668;23.250;2022-10-16T07:09:05;48441.91;;;-141.90;100.00
5298;BME280;14738;42.668;23.250;2022-10-16T07:11:31;48461.78;;;-141.90;100.00
5298;BME280;14738;42.668;23.250;2022-10-16T07:13:57;48426.03;;;-141.90;100.00
5298;BME280;14738;42.668;23.250;2022-10-16T07:16:26;48441.91;;;-141.90;100.00
5298;BME280;14738;42.668;23.250;2022-10-16T07:18:56;48424.06;;;-141.90;100.00
5298;BME280;14738;42.668;23.250;2022-10-16T07:21:25;48457.81;;;-141.90;100.00
5298;BME280;14738;42.668;23.250;2022-10-16T07:23:55;48441.91;;;-141.90;100.00
5298;BME280;14738;42.668;23.250;2022-10-16T07:26:22;48443.91;;;-141.90;100.00
5298;BME280;14738;42.668;23.250;2022-10-16T07:28:48;48441.91;;;-141.90;100.00
5298;BME280;14738;42.668;23.250;2022-10-16T07:31:15;48453.81;;;-141.90;100.00
5298;BME280;14738;42.668;23.250;2022-10-16T07:33:41;48437.94;;;-141.90;100.00
5298;BME280;14738;42.668;23.250;2022-10-16T07:36:10;48461.78;;;-141.90;100.00
5298;BME280;14738;42.668;23.250;2022-10-16T07:38:36;48422.06;;;-141.90;100.00
5298;BME280;14738;42.668;23.250;2022-10-16T07:41:06;48447.88;;;-141.90;100.00
5298;BME280;14738;42.668;23.250;2022-10-16T07:43:33;48449.84;;;-141.90;100.00
5298;BME280;14738;42.668;23.250;2022-10-16T07:45:58;48433.97;;;-141.90;100.00
5298;BME280;14738;42.668;23.250;2022-10-16T07:48:27;48453.81;;;-141.90;100.00
5298;BME280;14738;42.668;23.250;2022-10-16T07:50:57;48465.75;;;-141.90;100.00
5298;BME280;14738;42.668;23.250;2022-10-16T07:53:23;48449.84;;;-141.90;100.00
5298;BME280;14738;42.668;23.250;2022-10-16T07:55:48;48445.88;;;-141.90;100.00
5298;BME280;14738;42.668;23.250;2022-10-16T07:58:14;48469.72;;;-141.90;100.00
5298;BME280;14738;42.668;23.250;2022-10-16T08:00:39;48441.91;;;-141.90;100.00
5298;BME280;14738;42.668;23.250;2022-10-16T08:03:04;48461.78;;;-141.90;100.00
5298;BME280;14738;42.668;23.250;2022-10-16T08:05:32;48477.66;;;-141.90;100.00
5298;BME280;14738;42.668;23.250;2022-10-16T08:07:58;48430.00;;;-141.90;100.00
5298;BME280;14738;42.668;23.250;2022-10-16T08:10:26;48461.78;;;-141.90;100.00
5298;BME280;14738;42.668;23.250;2022-10-16T08:12:52;48441.91;;;-141.90;100.00
5298;BME280;14738;42.668;23.250;2022-10-16T08:15:19;48463.75;;;-141.90;100.00
5298;BME280;14738;42.668;23.250;2022-10-16T08:17:45;48451.84;;;-141.90;100.00
5298;BME280;14738;42.668;23.250;2022-10-16T08:20:18;48455.81;;;-141.90;100.00
5298;BME280;14738;42.668;23.250;2022-10-16T08:22:44;48453.81;;;-141.90;100.00
5298;BME280;14738;42.668;23.250;2022-10-16T08:25:09;48453.81;;;-141.90;100.00
5298;BME280;14738;42.668;23.250;2022-10-16T08:27:35;48433.97;;;-141.90;100.00
5298;BME280;14738;42.668;23.250;2022-10-16T08:30:00;48441.91;;;-141.90;100.00
5298;BME280;14738;42.668;23.250;2022-10-16T08:32:26;48437.94;;;-141.90;42.07
5298;BME280;14738;42.668;23.250;2022-10-16T08:34:51;48439.94;;;-141.90;42.82
5298;BME280;14738;42.668;23.250;2022-10-16T08:37:16;48449.84;;;-141.90;43.15
5298;BME280;14738;42.668;23.250;2022-10-16T08:39:42;48445.88;;;-141.90;42.58
5298;BME280;14738;42.668;23.250;2022-10-16T08:45:02;48451.84;;;-141.90;42.33
5298;BME280;14738;42.668;23.250;2022-10-16T08:50:27;48457.81;;;-141.90;41.83
5298;BME280;14738;42.668;23.250;2022-10-16T08:52:55;48453.81;;;-141.90;40.98
5298;BME280;14738;42.668;23.250;2022-10-16T08:55:41;48477.66;;;-141.90;41.60
5298;BME280;14738;42.668;23.250;2022-10-16T08:58:15;48457.81;;;-141.90;41.89
5298;BME280;14738;42.668;23.250;2022-10-16T09:00:42;48457.81;;;-141.90;42.10
5298;BME280;14738;42.668;23.250;2022-10-16T09:06:10;48426.03;;;-141.90;39.85
5298;BME280;14738;42.668;23.250;2022-10-16T09:16:42;48477.66;;;-141.90;37.59
5298;BME280;14738;42.668;23.250;2022-10-16T09:19:32;48469.72;;;-141.90;36.50
5298;BME280;14738;42.668;23.250;2022-10-16T09:22:04;48473.69;;;-141.90;35.83
5298;BME280;14738;42.668;23.250;2022-10-16T09:24:36;48495.53;;;-141.90;35.63
5298;BME280;14738;42.668;23.250;2022-10-16T09:27:02;48461.78;;;-141.90;35.46
5298;BME280;14738;42.668;23.250;2022-10-16T09:29:27;48465.75;;;-141.90;34.83
5298;BME280;14738;42.668;23.250;2022-10-16T09:31:54;48439.94;;;-141.90;34.41
5298;BME280;14738;42.668;23.250;2022-10-16T09:34:32;48475.66;;;-141.90;35.10
5298;BME280;14738;42.668;23.250;2022-10-16T09:37:04;48453.81;;;-141.90;34.87
5298;BME280;14738;42.668;23.250;2022-10-16T09:39:30;48457.81;;;-141.90;34.77
5298;BME280;14738;42.668;23.250;2022-10-16T09:41:56;48479.63;;;-141.90;34.90
5298;BME280;14738;42.668;23.250;2022-10-16T09:44:28;48463.75;;;-141.90;35.50
5298;BME280;14738;42.668;23.250;2022-10-16T09:47:14;48443.91;;;-141.90;35.61
5298;BME280;14738;42.668;23.250;2022-10-16T09:50:00;48481.63;;;-141.90;34.71
5298;BME280;14738;42.668;23.250;2022-10-16T09:52:29;48477.66;;;-141.90;34.40
5298;BME280;14738;42.668;23.250;2022-10-16T09:54:57;48469.72;;;-141.90;34.38
5298;BME280;14738;42.668;23.250;2022-10-16T09:57:23;48475.66;;;-141.90;33.68
5298;BME280;14738;42.668;23.250;2022-10-16T09:59:51;48455.81;;;-141.90;33.28
5298;BME280;14738;42.668;23.250;2022-10-16T10:02:19;48487.56;;;-141.90;33.05
5298;BME280;14738;42.668;23.250;2022-10-16T10:04:51;48477.66;;;-141.90;32.65
5298;BME280;14738;42.668;23.250;2022-10-16T10:07:23;48481.63;;;-141.90;34.38
5298;BME280;14738;42.668;23.250;2022-10-16T10:09:50;48461.78;;;-141.90;33.05
5298;BME280;14738;42.668;23.250;2022-10-16T10:12:25;48479.63;;;-141.90;33.51
5298;BME280;14738;42.668;23.250;2022-10-16T10:14:55;48455.81;;;-141.90;32.48
5298;BME280;14738;42.668;23.250;2022-10-16T10:17:22;48471.69;;;-141.90;32.67
5298;BME280;14738;42.668;23.250;2022-10-16T10:22:31;48477.66;;;-141.90;33.53
5298;BME280;14738;42.668;23.250;2022-10-16T10:30:29;48469.72;;;-141.90;32.04
5298;BME280;14738;42.668;23.250;2022-10-16T10:35:34;48465.75;;;-141.90;32.00
5298;BME280;14738;42.668;23.250;2022-10-16T10:38:20;48473.69;;;-141.90;32.36
5298;BME280;14738;42.668;23.250;2022-10-16T10:46:40;48453.81;;;-141.90;31.29
5298;BME280;14738;42.668;23.250;2022-10-16T10:51:44;48449.84;;;-141.90;31.19
5298;BME280;14738;42.668;23.250;2022-10-16T10:55:09;48445.88;;;-141.90;31.02
5298;BME280;14738;42.668;23.250;2022-10-16T10:57:29;48457.81;;;-141.90;30.69
5298;BME280;14738;42.668;23.250;2022-10-16T11:00:12;48459.78;;;-141.90;30.93
5298;BME280;14738;42.668;23.250;2022-10-16T11:06:07;48469.72;;;-141.90;30.90
5298;BME280;14738;42.668;23.250;2022-10-16T11:08:39;48469.72;;;-141.90;31.42
5298;BME280;14738;42.668;23.250;2022-10-16T11:11:17;48461.78;;;-141.90;31.77
5298;BME280;14738;42.668;23.250;2022-10-16T11:16:21;48481.63;;;-141.90;32.16
5298;BME280;14738;42.668;23.250;2022-10-16T11:18:55;48477.66;;;-141.90;32.43
5298;BME280;14738;42.668;23.250;2022-10-16T11:21:22;48481.63;;;-141.90;30.74
5298;BME280;14738;42.668;23.250;2022-10-16T11:26:42;48465.75;;;-141.90;30.01
5298;BME280;14738;42.668;23.250;2022-10-16T11:29:23;48457.81;;;-141.90;30.51
5298;BME280;14738;42.668;23.250;2022-10-16T11:31:53;48461.78;;;-141.90;28.75
5298;BME280;14738;42.668;23.250;2022-10-16T11:34:42;48461.78;;;-141.90;27.60
5298;BME280;14738;42.668;23.250;2022-10-16T11:37:27;48447.88;;;-141.90;28.64
5298;BME280;14738;42.668;23.250;2022-10-16T11:40:03;48449.84;;;-141.90;28.60
5298;BME280;14738;42.668;23.250;2022-10-16T11:42:43;48457.81;;;-141.90;30.29
5298;BME280;14738;42.668;23.250;2022-10-16T11:45:28;48481.63;;;-141.90;28.75
5298;BME280;14738;42.668;23.250;2022-10-16T11:48:11;48493.53;;;-141.90;29.04
5298;BME280;14738;42.668;23.250;2022-10-16T11:51:09;48489.56;;;-141.90;29.79
5298;BME280;14738;42.668;23.250;2022-10-16T11:56:12;48473.69;;;-141.90;30.34
5298;BME280;14738;42.668;23.250;2022-10-16T11:58:54;48477.66;;;-141.90;29.23
5298;BME280;14738;42.668;23.250;2022-10-16T12:01:29;48481.63;;;-141.90;29.68
5298;BME280;14738;42.668;23.250;2022-10-16T12:06:32;48457.81;;;-141.90;30.11
5298;BME280;14738;42.668;23.250;2022-10-16T12:09:00;48469.72;;;-141.90;29.38
5298;BME280;14738;42.668;23.250;2022-10-16T12:16:38;48449.84;;;-141.90;29.29
5298;BME280;14738;42.668;23.250;2022-10-16T12:21:35;48473.69;;;-141.90;29.64
5298;BME280;14738;42.668;23.250;2022-10-16T12:24:03;48445.88;;;-141.90;29.14
5298;BME280;14738;42.668;23.250;2022-10-16T12:26:36;48473.69;;;-141.90;29.76
5298;BME280;14738;42.668;23.250;2022-10-16T12:31:47;48477.66;;;-141.90;30.34
5298;BME280;14738;42.668;23.250;2022-10-16T12:36:55;48503.47;;;-141.90;30.12
5298;BME280;14738;42.668;23.250;2022-10-16T12:39:32;48497.50;;;-141.90;30.19
5298;BME280;14738;42.668;23.250;2022-10-16T12:42:02;48475.66;;;-141.90;29.18
5298;BME280;14738;42.668;23.250;2022-10-16T12:44:33;48465.75;;;-141.90;29.99
5298;BME280;14738;42.668;23.250;2022-10-16T12:47:00;48473.69;;;-141.90;29.33
5298;BME280;14738;42.668;23.250;2022-10-16T12:51:58;48459.78;;;-141.90;29.29
5298;BME280;14738;42.668;23.250;2022-10-16T12:54:37;48485.59;;;-141.90;29.71
5298;BME280;14738;42.668;23.250;2022-10-16T12:57:29;48493.53;;;-141.90;29.49
5298;BME280;14738;42.668;23.250;2022-10-16T13:00:24;48473.69;;;-141.90;30.00
5298;BME280;14738;42.668;23.250;2022-10-16T13:03:04;48433.97;;;-141.90;29.76
5298;BME280;14738;42.668;23.250;2022-10-16T13:19:29;48473.69;;;-141.90;29.47
5298;BME280;14738;42.668;23.250;2022-10-16T13:22:24;48467.72;;;-141.90;29.71
5298;BME280;14738;42.668;23.250;2022-10-16T13:25:25;48467.72;;;-141.90;28.85
5298;BME280;14738;42.668;23.250;2022-10-16T13:30:30;48465.75;;;-141.90;29.44
5298;BME280;14738;42.668;23.250;2022-10-16T13:33:12;48497.50;;;-141.90;29.31
5298;BME280;14738;42.668;23.250;2022-10-16T13:35:53;48461.78;;;-141.90;29.81
5298;BME280;14738;42.668;23.250;2022-10-16T13:38:27;48453.81;;;-141.90;29.84
5298;BME280;14738;42.668;23.250;2022-10-16T13:41:04;48477.66;;;-141.90;29.97
5298;BME280;14738;42.668;23.250;2022-10-16T13:46:06;48461.78;;;-141.90;29.32
5298;BME280;14738;42.668;23.250;2022-10-16T13:48:36;48493.53;;;-141.90;30.12
5298;BME280;14738;42.668;23.250;2022-10-16T13:53:33;48449.84;;;-141.90;29.49
5298;BME280;14738;42.668;23.250;2022-10-16T13:56:01;48457.81;;;-141.90;29.57
5298;BME280;14738;42.668;23.250;2022-10-16T13:58:27;48445.88;;;-141.90;29.70
5298;BME280;14738;42.668;23.250;2022-10-16T14:01:01;48467.72;;;-141.90;29.11
5298;BME280;14738;42.668;23.250;2022-10-16T14:03:28;48491.56;;;-141.90;28.77
5298;BME280;14738;42.668;23.250;2022-10-16T14:06:02;48495.53;;;-141.90;29.03
5298;BME280;14738;42.668;23.250;2022-10-16T14:08:29;48435.97;;;-141.90;28.81
5298;BME280;14738;42.668;23.250;2022-10-16T14:10:58;48465.75;;;-141.90;29.64
5298;BME280;14738;42.668;23.250;2022-10-16T14:13:38;48461.78;;;-141.90;29.48
5298;BME280;14738;42.668;23.250;2022-10-16T14:16:10;48461.78;;;-141.90;29.86
5298;BME280;14738;42.668;23.250;2022-10-16T14:18:38;48477.66;;;-141.90;29.37
5298;BME280;14738;42.668;23.250;2022-10-16T14:21:07;48465.75;;;-141.90;29.58
5298;BME280;14738;42.668;23.250;2022-10-16T14:23:37;48457.81;;;-141.90;29.17